LYB weather

Edward Bodden Airfield
Little Cayman, Cayman Islands

Public forecast

Using degrees Celsius for public forecast. Weather courtesy of forecast.io.

Closest aviation weather report (METAR) to Edward Bodden Airfield

Closest report is Gerrard Smith International Airport, 11.8 nm (21.8 km) E. Retrieved 2020/07/05 16:00 UTC (6 minutes ago):

MWCB 051600Z 13006KT 9999 FEW022 32/25 Q1017

Closest aviation forecast (TAF) to Edward Bodden Airfield

Closest forecast is Gerrard Smith International Airport, 11.8 nm (21.8 km) E. Retrieved 2020/07/05 12:12 UTC (4 hours ago):

TAF MWCB 051100Z 0512/0612 10008KT 9999 FEW018 PROB30 TEMPO 0519/0522 9000 SHRA SCT016